Time;durP1;ratioP1;P1;durP2;ratioP2;P2;SDS_P1;SDS_P2;PMS_P1;PMS_P2;Temp;Humidity;BMP_temperature;BMP_pressure;BME280_temperature;BME280_humidity;BME280_pressure;Samples;Min_cycle;Max_cycle;Signal;HPM_P1;HPM_P2
2022/10/10 00:00:38;;;;;;;8.80;5.10;;;;;;;5.01;91.86;99553.10;215756;1287;22511;-75
2022/10/10 00:05:40;;;;;;;10.20;5.30;;;;;;;4.99;91.94;99550.61;215782;1302;24885;-74
2022/10/10 00:10:42;;;;;;;11.10;5.40;;;;;;;5.06;92.36;99544.02;215746;1302;22489;-73
2022/10/10 00:15:43;;;;;;;8.50;5.50;;;;;;;5.15;92.61;99540.98;215792;1298;24297;-74
2022/10/10 00:20:51;;;;;;;9.10;5.40;;;;;;;5.24;92.35;99542.70;215729;1302;25229;-74
2022/10/10 00:25:53;;;;;;;6.10;4.50;;;;;;;5.23;92.25;99538.18;215758;1280;24338;-74
2022/10/10 00:30:55;;;;;;;9.90;5.00;;;;;;;5.22;92.57;99533.53;215733;1296;23159;-74
2022/10/10 00:35:56;;;;;;;12.00;5.40;;;;;;;5.28;92.79;99527.34;215496;1291;22942;-73
2022/10/10 00:40:59;;;;;;;11.70;4.70;;;;;;;5.36;92.50;99524.09;215767;1302;24446;-74
2022/10/10 00:46:01;;;;;;;9.30;5.10;;;;;;;5.39;92.58;99520.84;215974;1278;22485;-74
2022/10/10 00:51:13;;;;;;;8.20;5.10;;;;;;;5.40;92.63;99512.27;215465;1303;22459;-74
2022/10/10 00:56:20;;;;;;;11.60;5.90;;;;;;;5.37;92.32;99508.21;215725;1274;22520;-74
2022/10/10 01:01:22;;;;;;;10.10;4.50;;;;;;;5.34;92.34;99500.13;215679;1282;23756;-74
2022/10/10 01:06:23;;;;;;;7.50;4.30;;;;;;;5.31;92.43;99499.23;215530;1281;22621;-74
2022/10/10 01:11:47;;;;;;;7.90;4.10;;;;;;;5.26;92.20;99499.06;215552;1304;22513;-74
2022/10/10 01:17:15;;;;;;;8.40;4.90;;;;;;;5.19;92.21;99490.11;215543;1281;22451;-74
2022/10/10 01:22:24;;;;;;;6.70;4.30;;;;;;;5.15;92.49;99490.52;215686;1298;22567;-74
2022/10/10 01:27:41;;;;;;;6.30;3.70;;;;;;;5.13;92.65;99487.82;215804;1302;22462;-74
2022/10/10 01:33:07;;;;;;;7.80;4.60;;;;;;;5.13;92.99;99486.59;215693;1274;25290;-74
2022/10/10 01:38:49;;;;;;;11.20;4.90;;;;;;;5.16;92.92;99483.64;215759;1302;24357;-74
2022/10/10 01:43:56;;;;;;;7.50;4.90;;;;;;;5.18;92.88;99480.91;215633;1288;22468;-74
2022/10/10 01:48:59;;;;;;;11.70;5.90;;;;;;;5.23;93.08;99477.02;215566;1288;22566;-74
2022/10/10 01:54:04;;;;;;;9.00;5.60;;;;;;;5.26;93.07;99476.98;215863;1288;22647;-74
2022/10/10 01:59:23;;;;;;;8.80;5.90;;;;;;;5.29;92.93;99474.27;215691;1302;23828;-74
2022/10/10 02:04:30;;;;;;;12.40;7.50;;;;;;;5.37;93.35;99471.13;215685;1280;23738;-74
2022/10/10 02:09:39;;;;;;;9.60;6.30;;;;;;;5.45;93.34;99465.17;215893;1302;99377;-74
2022/10/10 02:14:50;;;;;;;12.00;6.70;;;;;;;5.48;93.24;99464.38;215991;1280;22630;-74
2022/10/10 02:19:55;;;;;;;13.10;7.30;;;;;;;5.52;92.96;99460.35;215604;1297;22483;-74
2022/10/10 02:24:57;;;;;;;13.40;7.20;;;;;;;5.49;93.16;99456.67;215869;1300;22475;-74
2022/10/10 02:30:01;;;;;;;14.10;8.20;;;;;;;5.46;93.10;99458.81;215540;1274;22676;-74
2022/10/10 02:35:08;;;;;;;11.50;7.10;;;;;;;5.49;93.03;99451.69;215575;1280;24260;-75
2022/10/10 02:40:13;;;;;;;14.70;7.90;;;;;;;5.48;93.02;99450.12;215841;1302;22469;-75
2022/10/10 02:45:15;;;;;;;16.10;9.10;;;;;;;5.42;92.96;99450.55;215631;1302;25396;-74
2022/10/10 02:50:17;;;;;;;12.90;7.70;;;;;;;5.36;92.73;99453.23;215750;1302;22509;-74
2022/10/10 02:55:19;;;;;;;14.00;8.10;;;;;;;5.28;92.66;99447.43;215597;1295;22461;-74
2022/10/10 03:00:20;;;;;;;12.80;8.20;;;;;;;5.25;92.63;99443.97;215667;1302;23136;-73
2022/10/10 03:05:22;;;;;;;16.30;9.50;;;;;;;5.16;92.40;99434.87;215728;1274;22473;-73
2022/10/10 03:10:24;;;;;;;22.00;11.00;;;;;;;5.13;92.65;99433.16;215691;1288;22504;-74
2022/10/10 03:15:25;;;;;;;14.30;9.00;;;;;;;5.10;92.66;99431.95;215841;1302;24321;-73
2022/10/10 03:20:27;;;;;;;17.40;9.90;;;;;;;5.06;92.74;99423.30;215624;1280;25498;-74
2022/10/10 03:25:29;;;;;;;19.80;11.30;;;;;;;5.00;92.92;99419.53;215730;1275;25337;-74
2022/10/10 03:30:30;;;;;;;16.70;9.80;;;;;;;4.94;92.66;99416.21;215772;1302;22471;-74
2022/10/10 03:35:32;;;;;;;18.10;10.20;;;;;;;4.91;92.82;99415.84;215616;1280;22460;-74
2022/10/10 03:40:39;;;;;;;22.20;12.80;;;;;;;4.85;92.89;99411.59;215772;1302;22502;-74
2022/10/10 03:45:43;;;;;;;22.50;12.30;;;;;;;4.80;93.05;99408.89;215817;1274;22476;-74
2022/10/10 03:50:44;;;;;;;29.20;16.60;;;;;;;4.77;93.35;99411.16;215937;1281;22909;-75
2022/10/10 03:55:46;;;;;;;28.20;14.60;;;;;;;4.75;93.14;99406.45;215730;1282;24074;-75
2022/10/10 04:00:55;;;;;;;25.40;14.40;;;;;;;4.72;93.38;99404.80;215729;1287;24525;-74
2022/10/10 04:05:57;;;;;;;23.70;13.30;;;;;;;4.77;93.76;99402.88;215823;1277;22692;-74
2022/10/10 04:10:59;;;;;;;24.60;14.20;;;;;;;4.76;93.29;99398.98;215804;1302;23207;-73
2022/10/10 04:16:01;;;;;;;27.60;14.50;;;;;;;4.71;93.55;99395.85;215796;1280;22468;-73
2022/10/10 04:21:04;;;;;;;27.80;16.00;;;;;;;4.65;93.22;99394.73;215645;1280;22465;-74
2022/10/10 04:26:07;;;;;;;25.30;13.30;;;;;;;4.58;93.30;99392.45;215421;1302;23736;-73
2022/10/10 04:31:08;;;;;;;19.20;11.20;;;;;;;4.53;93.65;99392.23;215678;1302;23609;-74
2022/10/10 04:36:10;;;;;;;19.40;10.90;;;;;;;4.47;93.52;99391.52;215800;1293;22528;-73
2022/10/10 04:41:12;;;;;;;16.20;9.10;;;;;;;4.38;93.59;99389.69;215738;1280;22489;-74
2022/10/10 04:46:13;;;;;;;13.80;8.50;;;;;;;4.32;93.78;99391.46;215487;1281;22655;-75
2022/10/10 04:51:15;;;;;;;19.70;10.20;;;;;;;4.31;94.07;99391.50;215857;1302;22901;-74
2022/10/10 04:56:17;;;;;;;17.00;9.40;;;;;;;4.25;93.87;99389.22;215822;1282;22461;-74
2022/10/10 05:01:19;;;;;;;14.80;8.50;;;;;;;4.18;93.81;99390.81;215777;1282;26006;-73
2022/10/10 05:06:21;;;;;;;14.30;8.40;;;;;;;4.13;93.77;99392.33;215719;1280;25375;-74
2022/10/10 05:11:22;;;;;;;21.80;11.00;;;;;;;4.10;93.79;99388.88;215789;1303;22481;-74
2022/10/10 05:16:24;;;;;;;17.10;9.40;;;;;;;4.07;93.92;99388.55;215764;1275;22482;-74
2022/10/10 05:21:27;;;;;;;19.40;9.20;;;;;;;4.08;94.06;99380.70;215764;1275;25325;-73
2022/10/10 05:26:29;;;;;;;15.90;9.30;;;;;;;4.10;94.23;99378.95;215862;1275;25029;-74
2022/10/10 05:31:31;;;;;;;16.10;9.20;;;;;;;4.12;94.22;99374.39;215602;1303;22458;-75
2022/10/10 05:36:32;;;;;;;15.10;8.20;;;;;;;4.19;94.75;99374.32;215901;1275;25361;-73
2022/10/10 05:41:35;;;;;;;19.40;11.30;;;;;;;4.31;94.88;99372.52;216042;1275;22580;-73
2022/10/10 05:46:37;;;;;;;21.10;12.40;;;;;;;4.48;95.18;99372.55;215878;1280;25286;-73
2022/10/10 05:51:39;;;;;;;20.90;11.60;;;;;;;4.73;95.18;99376.45;216203;1282;22664;-74
2022/10/10 05:56:40;;;;;;;22.70;12.30;;;;;;;4.93;94.81;99372.23;216047;1274;22489;-74
2022/10/10 06:01:42;;;;;;;18.80;10.50;;;;;;;5.08;94.77;99369.59;216231;1272;22502;-71
2022/10/10 06:06:44;;;;;;;20.30;11.00;;;;;;;5.30;95.35;99374.82;216519;1274;23256;-70
2022/10/10 06:11:46;;;;;;;18.40;10.70;;;;;;;5.53;95.09;99377.27;216052;1273;23740;-69
2022/10/10 06:16:47;;;;;;;20.40;10.90;;;;;;;5.74;95.12;99375.67;215979;1274;22484;-70
2022/10/10 06:21:49;;;;;;;21.60;11.10;;;;;;;5.99;95.05;99372.34;215978;1274;23554;-72
2022/10/10 06:26:51;;;;;;;20.60;11.70;;;;;;;6.21;94.69;99372.05;215916;1274;22479;-70
2022/10/10 06:31:53;;;;;;;17.50;11.00;;;;;;;6.42;94.47;99371.36;216130;1272;24280;-69
2022/10/10 06:36:54;;;;;;;19.40;11.20;;;;;;;6.67;94.70;99371.30;216257;1274;22591;-70
2022/10/10 06:41:56;;;;;;;20.00;12.10;;;;;;;6.90;94.21;99375.83;216155;1274;22735;-72
2022/10/10 06:46:59;;;;;;;23.40;12.00;;;;;;;7.14;94.11;99379.06;216097;1278;22607;-73
2022/10/10 06:52:01;;;;;;;18.60;11.20;;;;;;;7.42;93.96;99373.75;216026;1274;23236;-73
2022/10/10 06:57:03;;;;;;;22.50;11.30;;;;;;;7.67;93.45;99373.65;216088;1274;25365;-73
2022/10/10 07:02:04;;;;;;;21.70;11.90;;;;;;;7.92;93.37;99374.91;216033;1278;25281;-71
2022/10/10 07:07:06;;;;;;;21.80;11.60;;;;;;;8.25;93.05;99377.31;215956;1280;22517;-72
2022/10/10 07:12:09;;;;;;;19.20;10.80;;;;;;;8.78;92.83;99380.21;216200;1281;23890;-71
2022/10/10 07:17:10;;;;;;;12.30;8.60;;;;;;;8.96;91.65;99379.59;216007;1274;22466;-71
2022/10/10 07:22:12;;;;;;;13.50;7.60;;;;;;;9.07;91.00;99380.05;215961;1280;22496;-71
2022/10/10 07:27:14;;;;;;;13.50;7.90;;;;;;;9.20;90.59;99381.05;215974;1280;24251;-72
2022/10/10 07:32:16;;;;;;;11.70;7.30;;;;;;;9.37;90.13;99384.35;215968;1272;22816;-71
2022/10/10 07:37:18;;;;;;;13.30;7.80;;;;;;;9.58;90.09;99383.45;215989;1274;22505;-70
2022/10/10 07:42:20;;;;;;;9.90;6.70;;;;;;;9.79;89.67;99380.52;215801;1274;26003;-72
2022/10/10 07:47:22;;;;;;;9.80;6.10;;;;;;;10.01;89.52;99379.16;215709;1276;22568;-70
2022/10/10 07:52:23;;;;;;;8.70;6.20;;;;;;;10.25;89.03;99376.29;216275;1274;22469;-69
2022/10/10 07:57:25;;;;;;;9.60;6.50;;;;;;;10.47;88.41;99369.18;216523;1274;25043;-71
2022/10/10 08:02:27;;;;;;;8.70;6.00;;;;;;;10.69;88.02;99370.06;216564;1272;23190;-70
2022/10/10 08:07:29;;;;;;;10.40;5.50;;;;;;;10.94;87.81;99367.17;216472;1274;22513;-75
2022/10/10 08:12:30;;;;;;;10.30;5.20;;;;;;;11.14;87.20;99363.59;216145;1275;22467;-72
2022/10/10 08:17:33;;;;;;;8.80;5.60;;;;;;;11.36;86.70;99361.67;216132;1288;22598;-72
2022/10/10 08:22:34;;;;;;;9.90;5.30;;;;;;;11.54;86.14;99358.27;216426;1287;25260;-73
2022/10/10 08:27:36;;;;;;;8.70;5.80;;;;;;;11.74;85.81;99360.04;216335;1280;22472;-74
2022/10/10 08:32:38;;;;;;;10.20;5.50;;;;;;;11.93;85.38;99351.73;216021;1274;25293;-71
2022/10/10 08:37:39;;;;;;;7.40;5.20;;;;;;;12.13;84.99;99351.38;215998;1288;22518;-71
2022/10/10 08:42:47;;;;;;;6.50;5.20;;;;;;;12.32;84.58;99347.48;215726;1274;25264;-71
2022/10/10 08:48:01;;;;;;;7.00;5.20;;;;;;;12.51;83.82;99344.17;215987;1288;23624;-70
2022/10/10 08:53:13;;;;;;;6.50;5.30;;;;;;;12.67;83.42;99343.00;216078;1274;22536;-72
2022/10/10 08:58:22;;;;;;;9.50;5.60;;;;;;;12.82;83.01;99344.64;216009;1282;22543;-70
2022/10/10 09:03:47;;;;;;;9.30;4.40;;;;;;;12.96;82.60;99345.74;215966;1278;22477;-71
2022/10/10 09:09:10;;;;;;;5.70;4.30;;;;;;;13.10;82.28;99341.45;216016;1282;24454;-71
2022/10/10 09:14:24;;;;;;;9.20;4.30;;;;;;;13.30;81.70;99342.95;215986;1281;24265;-72
2022/10/10 09:19:41;;;;;;;8.10;4.30;;;;;;;13.45;81.53;99339.36;216237;1281;23215;-72
2022/10/10 09:24:57;;;;;;;8.00;4.30;;;;;;;13.64;80.95;99333.67;215905;1277;24370;-73
2022/10/10 09:30:19;;;;;;;6.00;3.90;;;;;;;13.79;80.34;99324.63;216127;1288;22550;-72
2022/10/10 09:35:28;;;;;;;6.00;4.00;;;;;;;13.99;80.06;99319.65;215915;1282;22469;-72
2022/10/10 09:40:36;;;;;;;6.20;3.70;;;;;;;14.16;79.99;99315.34;215939;1282;22538;-71
2022/10/10 09:45:45;;;;;;;5.50;4.00;;;;;;;14.36;79.52;99307.37;215905;1282;22478;-71
2022/10/10 09:50:46;;;;;;;9.00;6.00;;;;;;;14.61;79.41;99304.93;216071;1282;22576;-70
2022/10/10 09:55:52;;;;;;;7.60;4.70;;;;;;;14.78;78.40;99300.80;216476;1281;22468;-71
2022/10/10 10:01:08;;;;;;;6.10;4.10;;;;;;;14.85;77.74;99294.55;216325;1282;22602;-72
2022/10/10 10:06:14;;;;;;;5.80;3.30;;;;;;;15.00;77.94;99297.85;216190;1275;22460;-74
2022/10/10 10:11:27;;;;;;;7.60;4.30;;;;;;;15.18;77.56;99290.84;215952;1278;23250;-75
2022/10/10 10:16:37;;;;;;;6.40;4.20;;;;;;;15.39;77.22;99289.21;215778;1280;22462;-72
2022/10/10 10:21:50;;;;;;;8.80;4.60;;;;;;;15.61;76.68;99284.23;216503;1281;22526;-72
2022/10/10 10:26:52;;;;;;;6.20;4.00;;;;;;;15.80;76.19;99278.00;216090;1278;22541;-73
2022/10/10 10:32:21;;;;;;;7.00;4.80;;;;;;;15.98;75.52;99277.84;215987;1275;25373;-70
2022/10/10 10:37:34;;;;;;;7.80;4.60;;;;;;;16.15;74.50;99272.05;216102;1275;22499;-71
2022/10/10 10:42:58;;;;;;;6.10;4.40;;;;;;;16.26;74.42;99270.42;216158;1275;22504;-72
2022/10/10 10:48:24;;;;;;;9.90;5.30;;;;;;;16.41;73.81;99263.52;215781;1274;22487;-71
2022/10/10 10:53:39;;;;;;;6.30;4.30;;;;;;;16.53;73.39;99258.71;216088;1277;25257;-72
2022/10/10 10:58:58;;;;;;;12.80;3.80;;;;;;;16.65;73.28;99252.52;216037;1274;22542;-72
2022/10/10 11:04:36;;;;;;;5.70;4.10;;;;;;;16.82;73.26;99242.70;216143;1277;22506;-72
2022/10/10 11:10:19;;;;;;;4.90;3.10;;;;;;;17.01;73.40;99235.20;215779;1281;22593;-73
2022/10/10 11:15:28;;;;;;;7.20;3.60;;;;;;;17.18;72.61;99232.83;215945;1282;22601;-72
2022/10/10 11:21:05;;;;;;;7.50;4.20;;;;;;;17.29;72.35;99227.17;216024;1286;22487;-72
2022/10/10 11:26:16;;;;;;;6.00;4.20;;;;;;;17.40;72.01;99218.55;215917;1282;23525;-70
2022/10/10 11:31:31;;;;;;;7.80;3.90;;;;;;;17.46;68.78;99213.11;215870;1277;22486;-75
2022/10/10 11:36:37;;;;;;;7.50;4.00;;;;;;;17.55;70.28;99203.48;216031;1278;22615;-72
2022/10/10 11:41:46;;;;;;;6.50;3.70;;;;;;;17.64;70.45;99198.39;216022;1278;23121;-72
2022/10/10 11:47:16;;;;;;;4.40;3.80;;;;;;;17.71;69.93;99194.92;215980;1278;24323;-72
2022/10/10 11:52:53;;;;;;;6.30;4.30;;;;;;;17.79;69.82;99189.46;215906;1277;24280;-72
2022/10/10 11:58:18;;;;;;;7.90;4.60;;;;;;;17.90;70.03;99181.00;215963;1278;22474;-72
2022/10/10 12:03:19;;;;;;;10.50;6.80;;;;;;;18.02;69.88;99173.02;216212;1277;22761;-71
2022/10/10 12:08:34;;;;;;;7.30;4.90;;;;;;;18.11;68.90;99164.16;216213;1277;23139;-72
2022/10/10 12:13:41;;;;;;;6.80;4.40;;;;;;;18.17;69.04;99153.52;216133;1278;23536;-71
2022/10/10 12:18:52;;;;;;;8.20;4.50;;;;;;;18.20;67.48;99151.23;216046;1282;24439;-71
2022/10/10 12:24:12;;;;;;;5.60;4.50;;;;;;;18.24;68.49;99144.67;215875;1275;25413;-72
2022/10/10 12:29:47;;;;;;;6.50;4.80;;;;;;;18.28;67.05;99139.38;215718;1282;23076;-71
2022/10/10 12:34:51;;;;;;;5.30;4.40;;;;;;;18.31;67.66;99132.51;215937;1282;22605;-69
2022/10/10 12:40:05;;;;;;;5.30;4.30;;;;;;;18.38;67.66;99124.85;215999;1277;22550;-70
2022/10/10 12:45:29;;;;;;;6.40;4.60;;;;;;;18.48;67.09;99120.88;216100;1279;23206;-70
2022/10/10 12:50:35;;;;;;;7.40;5.00;;;;;;;18.50;66.31;99115.46;216007;1302;24312;-71
2022/10/10 12:55:43;;;;;;;9.30;5.30;;;;;;;18.51;65.32;99109.42;216156;1282;22500;-71
2022/10/10 13:00:47;;;;;;;10.20;5.60;;;;;;;18.54;65.81;99106.83;215910;1277;22543;-72
2022/10/10 13:05:51;;;;;;;8.10;4.90;;;;;;;18.59;66.37;99098.41;216173;1278;22460;-72
2022/10/10 13:11:14;;;;;;;9.70;5.30;;;;;;;18.61;66.38;99086.02;215847;1282;24277;-73
2022/10/10 13:16:19;;;;;;;7.10;5.50;;;;;;;18.62;66.74;99079.00;215159;1280;24428;-71
2022/10/10 13:21:26;;;;;;;7.90;4.90;;;;;;;18.61;66.86;99073.46;215290;1289;22450;-72
2022/10/10 13:26:35;;;;;;;8.20;5.00;;;;;;;18.58;66.52;99073.66;215343;1283;24330;-75
2022/10/10 13:31:37;;;;;;;8.20;5.60;;;;;;;18.56;66.35;99065.27;215016;1286;22534;-71
2022/10/10 13:36:39;;;;;;;21.60;17.10;;;;;;;18.56;66.85;99056.67;215209;1288;23579;-72
2022/10/10 13:41:51;;;;;;;9.40;7.10;;;;;;;18.56;66.81;99054.29;215037;1287;23783;-71
2022/10/10 13:46:53;;;;;;;18.20;11.90;;;;;;;18.58;67.35;99054.21;215064;1281;24288;-72
2022/10/10 13:52:19;;;;;;;18.00;11.10;;;;;;;18.58;67.10;99054.96;215092;1284;25291;-75
2022/10/10 13:57:24;;;;;;;12.60;7.30;;;;;;;18.57;67.28;99047.73;214706;1283;25540;-72
2022/10/10 14:02:32;;;;;;;9.70;6.70;;;;;;;18.57;67.22;99046.63;214882;1287;22891;-74
2022/10/10 14:07:35;;;;;;;7.80;5.40;;;;;;;18.51;67.13;99043.88;214499;1291;135073;-75
2022/10/10 14:12:47;;;;;;;6.60;4.90;;;;;;;18.44;67.04;99035.11;214813;1309;24408;-74
2022/10/10 14:17:49;;;;;;;9.40;5.10;;;;;;;18.35;66.76;99030.63;214554;1309;22473;-75
2022/10/10 14:22:51;;;;;;;7.70;4.90;;;;;;;18.28;66.66;99031.92;214730;1300;22607;-74
2022/10/10 14:27:53;;;;;;;7.80;5.00;;;;;;;18.20;66.51;99027.90;214698;1293;24289;-74
2022/10/10 14:32:54;;;;;;;5.90;4.60;;;;;;;18.11;66.83;99024.88;214589;1284;22940;-73
2022/10/10 14:37:56;;;;;;;7.20;4.90;;;;;;;17.99;66.65;99017.55;214455;1309;22470;-73
2022/10/10 14:42:59;;;;;;;6.70;4.70;;;;;;;17.86;66.81;99018.88;214704;1302;22471;-74
2022/10/10 14:48:00;;;;;;;8.90;4.40;;;;;;;17.73;66.72;99017.05;214585;1309;25385;-73
2022/10/10 14:53:03;;;;;;;9.30;4.80;;;;;;;17.59;66.70;99014.77;214524;1287;22516;-74
2022/10/10 14:58:05;;;;;;;10.50;5.20;;;;;;;17.45;66.65;99010.27;214462;1309;24261;-75
2022/10/10 15:03:07;;;;;;;6.20;4.30;;;;;;;17.27;66.74;99009.60;214550;1283;22513;-73
2022/10/10 15:08:13;;;;;;;7.60;4.60;;;;;;;17.12;66.93;99006.14;214495;1304;22966;-74
2022/10/10 15:13:15;;;;;;;6.50;4.40;;;;;;;16.98;66.92;98999.55;214824;1293;26414;-74
2022/10/10 15:18:16;;;;;;;10.10;4.40;;;;;;;16.84;67.00;99007.14;214725;1309;22490;-73
2022/10/10 15:23:38;;;;;;;9.10;5.10;;;;;;;16.65;67.21;99010.70;214536;1286;22489;-75
2022/10/10 15:28:40;;;;;;;6.10;4.90;;;;;;;16.50;67.60;99008.86;214587;1309;24330;-73
2022/10/10 15:33:42;;;;;;;6.90;4.00;;;;;;;16.33;67.54;99005.36;214736;1284;22532;-74
2022/10/10 15:38:44;;;;;;;10.70;5.20;;;;;;;16.14;67.61;99007.48;214681;1295;22483;-74
2022/10/10 15:43:53;;;;;;;13.70;5.50;;;;;;;15.96;67.73;99007.78;214693;1288;23093;-73
2022/10/10 15:49:00;;;;;;;8.70;5.40;;;;;;;15.75;68.01;99006.60;214683;1309;22495;-74
2022/10/10 15:54:03;;;;;;;9.10;4.40;;;;;;;15.56;68.37;99001.63;214536;1291;24358;-73
2022/10/10 15:59:07;;;;;;;7.40;4.70;;;;;;;15.34;68.37;99000.27;214673;1309;22536;-74
2022/10/10 16:04:09;;;;;;;6.30;3.80;;;;;;;15.11;68.47;99004.50;214626;1281;22725;-73
2022/10/10 16:09:11;;;;;;;10.90;4.50;;;;;;;14.88;68.63;99007.47;214608;1302;22485;-74
2022/10/10 16:14:29;;;;;;;8.80;4.60;;;;;;;14.65;68.81;99007.19;214659;1285;24322;-73
2022/10/10 16:19:31;;;;;;;11.00;5.00;;;;;;;14.44;68.95;99005.16;214629;1309;25369;-73
2022/10/10 16:24:33;;;;;;;7.10;4.30;;;;;;;14.26;69.10;99004.64;214764;1283;22472;-73
2022/10/10 16:29:34;;;;;;;13.50;5.50;;;;;;;14.08;69.36;99007.39;214648;1308;22477;-73
2022/10/10 16:34:36;;;;;;;9.80;5.30;;;;;;;13.89;69.53;99007.60;214692;1284;22756;-73
2022/10/10 16:39:38;;;;;;;9.90;5.30;;;;;;;13.74;69.64;99001.86;214626;1309;25320;-72
2022/10/10 16:44:40;;;;;;;14.00;7.90;;;;;;;13.59;70.12;98993.78;214582;1283;24213;-73
2022/10/10 16:49:42;;;;;;;12.80;7.10;;;;;;;13.37;70.57;98999.67;214556;1309;26166;-73
2022/10/10 16:54:44;;;;;;;11.40;6.50;;;;;;;13.16;70.87;98987.97;214417;1286;22465;-72
2022/10/10 16:59:52;;;;;;;13.50;7.40;;;;;;;13.02;71.13;98992.56;214687;1309;22989;-73
2022/10/10 17:04:56;;;;;;;18.00;6.20;;;;;;;12.92;71.41;99001.14;214725;1278;25379;-73
2022/10/10 17:09:57;;;;;;;13.90;6.10;;;;;;;12.82;71.61;99002.77;214699;1297;22485;-73
2022/10/10 17:15:00;;;;;;;15.20;7.90;;;;;;;12.70;71.76;98995.25;214645;1284;23570;-73
2022/10/10 17:20:04;;;;;;;13.20;7.90;;;;;;;12.57;72.09;98990.75;214633;1309;25349;-74
2022/10/10 17:25:06;;;;;;;13.50;7.80;;;;;;;12.47;72.55;98994.70;214464;1280;24244;-73
2022/10/10 17:30:11;;;;;;;14.90;8.10;;;;;;;12.34;72.68;98993.56;214744;1309;22701;-73
2022/10/10 17:35:13;;;;;;;12.80;7.30;;;;;;;12.24;72.89;98986.27;214626;1283;25354;-72
2022/10/10 17:40:15;;;;;;;15.70;8.70;;;;;;;12.12;73.21;98983.66;214661;1309;22475;-73
2022/10/10 17:45:16;;;;;;;18.10;9.70;;;;;;;12.01;73.54;98982.16;214758;1294;22533;-73
2022/10/10 17:50:18;;;;;;;20.60;10.60;;;;;;;11.90;74.05;98979.57;214520;1309;25421;-73
2022/10/10 17:55:20;;;;;;;16.50;9.50;;;;;;;11.80;74.25;98984.97;214617;1289;22546;-75
2022/10/10 18:00:22;;;;;;;17.20;10.10;;;;;;;11.68;74.67;98985.58;214537;1309;23748;-73
2022/10/10 18:05:24;;;;;;;18.50;10.20;;;;;;;11.57;74.98;98974.61;214631;1284;25356;-74
2022/10/10 18:10:26;;;;;;;22.40;10.30;;;;;;;11.47;75.40;98984.04;214580;1309;22513;-73
2022/10/10 18:15:28;;;;;;;21.10;10.50;;;;;;;11.37;75.88;98974.55;214704;1288;22465;-72
2022/10/10 18:20:30;;;;;;;21.10;11.20;;;;;;;11.27;76.07;98977.27;214547;1309;25274;-73
2022/10/10 18:25:32;;;;;;;19.40;10.30;;;;;;;11.14;76.20;98979.30;214777;1283;22536;-74
2022/10/10 18:30:38;;;;;;;23.00;11.20;;;;;;;11.02;76.66;98975.64;214896;1308;22611;-73
2022/10/10 18:35:40;;;;;;;23.10;11.50;;;;;;;10.91;77.23;98979.40;214805;1286;22746;-74
2022/10/10 18:40:42;;;;;;;24.50;12.40;;;;;;;10.80;77.44;98973.41;214678;1309;22601;-72
2022/10/10 18:45:44;;;;;;;24.00;13.10;;;;;;;10.70;77.75;98975.56;214641;1287;22498;-73
2022/10/10 18:50:45;;;;;;;19.80;11.80;;;;;;;10.60;78.21;98971.86;214648;1309;25383;-72
2022/10/10 18:55:54;;;;;;;23.90;13.10;;;;;;;10.50;78.61;98960.33;214520;1295;25338;-73
2022/10/10 19:01:00;;;;;;;29.00;14.40;;;;;;;10.38;78.96;98958.66;214579;1309;25423;-73
2022/10/10 19:06:05;;;;;;;24.90;14.40;;;;;;;10.27;79.30;98957.13;214652;1280;24408;-73
2022/10/10 19:11:17;;;;;;;27.70;14.00;;;;;;;10.18;79.48;98954.80;214685;1304;22542;-73
2022/10/10 19:16:19;;;;;;;27.00;13.50;;;;;;;10.07;79.91;98946.96;214555;1280;22575;-73
2022/10/10 19:21:21;;;;;;;25.80;13.40;;;;;;;9.99;80.15;98949.71;214615;1309;24475;-73
2022/10/10 19:26:24;;;;;;;27.80;13.90;;;;;;;9.91;80.54;98944.42;214538;1287;23778;-73
2022/10/10 19:31:28;;;;;;;31.00;15.20;;;;;;;9.82;80.73;98944.44;214606;1304;24261;-73
2022/10/10 19:36:30;;;;;;;29.60;15.90;;;;;;;9.72;80.99;98947.14;214460;1285;25519;-74
2022/10/10 19:41:32;;;;;;;34.70;15.40;;;;;;;9.63;81.37;98944.14;214520;1309;24447;-71
2022/10/10 19:46:34;;;;;;;31.00;15.60;;;;;;;9.55;81.70;98945.58;214704;1286;25411;-73
2022/10/10 19:51:38;;;;;;;30.20;15.80;;;;;;;9.47;82.04;98950.05;214580;1298;22470;-73
2022/10/10 19:56:40;;;;;;;31.20;15.60;;;;;;;9.40;82.41;98958.98;214687;1280;22537;-73
2022/10/10 20:01:41;;;;;;;27.50;14.80;;;;;;;9.36;82.77;98954.39;214692;1286;22601;-73
2022/10/10 20:06:43;;;;;;;23.90;14.60;;;;;;;9.32;82.89;98955.86;214644;1286;22489;-73
2022/10/10 20:11:45;;;;;;;32.80;15.10;;;;;;;9.28;83.11;98956.69;214634;1309;25541;-72
2022/10/10 20:16:47;;;;;;;29.00;14.50;;;;;;;9.26;83.57;98953.91;214623;1288;22948;-73
2022/10/10 20:21:49;;;;;;;29.30;14.40;;;;;;;9.26;83.88;98961.08;214708;1309;26549;-73
2022/10/10 20:26:52;;;;;;;30.20;14.80;;;;;;;9.24;83.92;98956.44;214708;1280;25251;-73
2022/10/10 20:31:54;;;;;;;25.20;14.10;;;;;;;9.22;84.10;98955.27;214873;1309;22606;-72
2022/10/10 20:36:56;;;;;;;27.30;15.50;;;;;;;9.19;84.35;98958.34;214826;1295;23762;-73
2022/10/10 20:41:57;;;;;;;28.10;14.80;;;;;;;9.18;84.66;98961.07;214745;1309;25393;-72
2022/10/10 20:46:59;;;;;;;28.90;14.30;;;;;;;9.21;84.92;98964.80;214754;1288;22775;-72
2022/10/10 20:52:01;;;;;;;20.40;12.10;;;;;;;9.24;85.17;98965.20;214709;1288;22527;-73
2022/10/10 20:57:02;;;;;;;30.00;15.50;;;;;;;9.29;85.71;98972.13;214816;1281;22491;-73
2022/10/10 21:02:05;;;;;;;26.20;13.80;;;;;;;9.39;86.26;98975.83;214590;1309;22489;-75
2022/10/10 21:07:06;;;;;;;29.50;14.60;;;;;;;9.53;86.48;98976.13;214592;1280;22485;-73
2022/10/10 21:12:08;;;;;;;24.40;12.40;;;;;;;9.65;86.53;98976.33;214608;1309;26380;-72
2022/10/10 21:17:16;;;;;;;25.40;12.70;;;;;;;9.76;86.70;98979.25;214634;1280;22502;-72
2022/10/10 21:22:18;;;;;;;21.20;11.70;;;;;;;9.85;86.61;98981.76;214861;1309;25507;-72
2022/10/10 21:27:20;;;;;;;18.60;9.20;;;;;;;9.95;86.70;98984.21;214796;1303;22598;-72
2022/10/10 21:32:22;;;;;;;14.70;9.00;;;;;;;10.09;86.43;98978.80;214683;1280;22599;-74
2022/10/10 21:37:27;;;;;;;16.10;7.70;;;;;;;10.22;85.91;98982.66;214726;1288;22478;-73
2022/10/10 21:42:29;;;;;;;10.50;6.30;;;;;;;10.34;85.70;98978.03;214806;1286;22522;-73
2022/10/10 21:47:30;;;;;;;6.90;4.80;;;;;;;10.49;85.38;98977.16;214817;1286;25471;-72
2022/10/10 21:52:37;;;;;;;9.60;5.20;;;;;;;10.66;84.73;98982.19;214731;1287;22492;-73
2022/10/10 21:57:39;;;;;;;9.30;4.40;;;;;;;10.80;84.15;98989.85;214719;1303;22479;-71
2022/10/10 22:02:41;;;;;;;5.00;3.40;;;;;;;10.94;83.83;98991.96;214580;1282;24331;-73
2022/10/10 22:07:44;;;;;;;5.30;3.10;;;;;;;11.06;83.30;98985.99;214605;1288;24333;-73
2022/10/10 22:12:46;;;;;;;6.00;3.50;;;;;;;11.20;82.49;98987.16;214886;1287;22532;-73
2022/10/10 22:17:47;;;;;;;6.90;3.80;;;;;;;11.34;82.18;98986.30;214590;1309;22977;-73
2022/10/10 22:22:49;;;;;;;7.00;3.50;;;;;;;11.42;81.66;98985.17;214735;1286;22536;-75
2022/10/10 22:27:51;;;;;;;5.30;3.00;;;;;;;11.52;81.54;98988.30;214583;1288;22520;-73
2022/10/10 22:32:57;;;;;;;5.10;3.20;;;;;;;11.58;80.96;98986.63;214659;1283;24925;-74
2022/10/10 22:38:00;;;;;;;5.00;3.40;;;;;;;11.64;80.75;98985.69;214706;1309;25610;-73
2022/10/10 22:43:02;;;;;;;4.90;2.90;;;;;;;11.72;80.04;98981.39;214859;1281;22466;-73
2022/10/10 22:48:04;;;;;;;6.00;3.10;;;;;;;11.77;80.06;98984.80;214531;1309;24228;-72
2022/10/10 22:53:05;;;;;;;6.70;3.10;;;;;;;11.84;79.49;98988.25;214636;1284;25352;-73
2022/10/10 22:58:07;;;;;;;6.40;3.00;;;;;;;11.91;79.17;98994.92;214560;1308;24298;-73
2022/10/10 23:03:09;;;;;;;4.60;2.80;;;;;;;11.99;78.72;99002.02;214735;1280;22507;-73
2022/10/10 23:08:11;;;;;;;4.70;2.60;;;;;;;12.06;78.32;99001.11;214629;1288;24728;-73
2022/10/10 23:13:22;;;;;;;3.10;2.60;;;;;;;12.14;78.26;99007.59;214608;1281;22558;-73
2022/10/10 23:18:24;;;;;;;4.00;2.40;;;;;;;12.19;77.71;99018.77;214718;1294;23580;-73
2022/10/10 23:23:25;;;;;;;6.20;3.00;;;;;;;12.25;77.49;99019.50;214796;1281;23313;-72
2022/10/10 23:28:27;;;;;;;4.30;2.70;;;;;;;12.30;76.99;99020.33;214717;1309;25510;-75
2022/10/10 23:33:29;;;;;;;4.60;2.90;;;;;;;12.35;76.55;99019.55;214798;1286;22599;-72